sensor_id;sensor_type;location;lat;lon;timestamp;P1;durP1;ratioP1;P2;durP2;ratioP2
44822;SDS011;51097;51.984;5.650;2022-08-02T00:01:33;4.75;;;1.70;;
44822;SDS011;51097;51.984;5.650;2022-08-02T00:03:59;2.67;;;2.10;;
44822;SDS011;51097;51.984;5.650;2022-08-02T00:06:24;3.20;;;1.50;;
44822;SDS011;51097;51.984;5.650;2022-08-02T00:08:50;2.25;;;1.70;;
44822;SDS011;51097;51.984;5.650;2022-08-02T00:11:17;3.78;;;2.78;;
44822;SDS011;51097;51.984;5.650;2022-08-02T00:13:43;5.03;;;2.00;;
44822;SDS011;51097;51.984;5.650;2022-08-02T00:16:09;4.35;;;1.83;;
44822;SDS011;51097;51.984;5.650;2022-08-02T00:18:34;3.95;;;1.98;;
44822;SDS011;51097;51.984;5.650;2022-08-02T00:21:00;7.47;;;1.83;;
44822;SDS011;51097;51.984;5.650;2022-08-02T00:23:25;5.22;;;1.60;;
44822;SDS011;51097;51.984;5.650;2022-08-02T00:25:51;2.25;;;1.52;;
44822;SDS011;51097;51.984;5.650;2022-08-02T00:28:16;5.40;;;2.58;;
44822;SDS011;51097;51.984;5.650;2022-08-02T00:30:42;2.53;;;1.70;;
44822;SDS011;51097;51.984;5.650;2022-08-02T00:33:07;4.03;;;1.30;;
44822;SDS011;51097;51.984;5.650;2022-08-02T00:35:33;1.77;;;1.20;;
44822;SDS011;51097;51.984;5.650;2022-08-02T00:37:59;4.60;;;1.42;;
44822;SDS011;51097;51.984;5.650;2022-08-02T00:40:25;3.30;;;1.65;;
44822;SDS011;51097;51.984;5.650;2022-08-02T00:43:01;2.25;;;1.40;;
44822;SDS011;51097;51.984;5.650;2022-08-02T00:45:31;2.60;;;1.58;;
44822;SDS011;51097;51.984;5.650;2022-08-02T00:48:02;2.95;;;1.70;;
44822;SDS011;51097;51.984;5.650;2022-08-02T00:50:28;2.75;;;1.73;;
44822;SDS011;51097;51.984;5.650;2022-08-02T00:52:54;3.47;;;2.30;;
44822;SDS011;51097;51.984;5.650;2022-08-02T00:55:20;3.50;;;1.85;;
44822;SDS011;51097;51.984;5.650;2022-08-02T00:57:46;3.92;;;1.90;;
44822;SDS011;51097;51.984;5.650;2022-08-02T01:00:12;3.70;;;1.80;;
44822;SDS011;51097;51.984;5.650;2022-08-02T01:02:38;4.63;;;1.88;;
44822;SDS011;51097;51.984;5.650;2022-08-02T01:05:04;2.88;;;1.80;;
44822;SDS011;51097;51.984;5.650;2022-08-02T01:07:30;1.90;;;1.65;;
44822;SDS011;51097;51.984;5.650;2022-08-02T01:09:56;2.95;;;1.80;;
44822;SDS011;51097;51.984;5.650;2022-08-02T01:12:21;6.18;;;2.30;;
44822;SDS011;51097;51.984;5.650;2022-08-02T01:14:48;3.25;;;2.35;;
44822;SDS011;51097;51.984;5.650;2022-08-02T01:17:26;3.33;;;1.63;;
44822;SDS011;51097;51.984;5.650;2022-08-02T01:20:08;5.43;;;1.70;;
44822;SDS011;51097;51.984;5.650;2022-08-02T01:22:50;1.98;;;1.52;;
44822;SDS011;51097;51.984;5.650;2022-08-02T01:31:30;6.80;;;2.00;;
44822;SDS011;51097;51.984;5.650;2022-08-02T01:36:25;3.85;;;2.70;;
44822;SDS011;51097;51.984;5.650;2022-08-02T01:41:23;2.67;;;1.92;;
44822;SDS011;51097;51.984;5.650;2022-08-02T01:46:26;5.28;;;2.13;;
44822;SDS011;51097;51.984;5.650;2022-08-02T01:48:53;5.10;;;2.25;;
44822;SDS011;51097;51.984;5.650;2022-08-02T01:51:21;3.28;;;1.88;;
44822;SDS011;51097;51.984;5.650;2022-08-02T01:54:11;4.03;;;2.47;;
44822;SDS011;51097;51.984;5.650;2022-08-02T01:56:39;8.48;;;2.78;;
44822;SDS011;51097;51.984;5.650;2022-08-02T01:59:06;8.88;;;2.90;;
44822;SDS011;51097;51.984;5.650;2022-08-02T02:01:35;8.27;;;2.87;;
44822;SDS011;51097;51.984;5.650;2022-08-02T02:04:03;5.93;;;3.00;;
44822;SDS011;51097;51.984;5.650;2022-08-02T02:06:31;5.68;;;3.05;;
44822;SDS011;51097;51.984;5.650;2022-08-02T02:08:58;7.40;;;3.10;;
44822;SDS011;51097;51.984;5.650;2022-08-02T02:11:24;6.90;;;3.08;;
44822;SDS011;51097;51.984;5.650;2022-08-02T02:13:50;7.75;;;3.05;;
44822;SDS011;51097;51.984;5.650;2022-08-02T02:16:18;6.05;;;3.10;;
44822;SDS011;51097;51.984;5.650;2022-08-02T02:18:43;5.82;;;2.42;;
44822;SDS011;51097;51.984;5.650;2022-08-02T02:21:10;6.15;;;3.53;;
44822;SDS011;51097;51.984;5.650;2022-08-02T02:23:36;6.53;;;3.38;;
44822;SDS011;51097;51.984;5.650;2022-08-02T02:26:03;5.25;;;2.70;;
44822;SDS011;51097;51.984;5.650;2022-08-02T02:28:30;5.20;;;2.92;;
44822;SDS011;51097;51.984;5.650;2022-08-02T02:31:02;4.03;;;2.78;;
44822;SDS011;51097;51.984;5.650;2022-08-02T02:33:31;4.68;;;2.78;;
44822;SDS011;51097;51.984;5.650;2022-08-02T02:35:59;6.50;;;3.00;;
44822;SDS011;51097;51.984;5.650;2022-08-02T02:38:27;6.90;;;2.78;;
44822;SDS011;51097;51.984;5.650;2022-08-02T02:40:55;9.57;;;3.08;;
44822;SDS011;51097;51.984;5.650;2022-08-02T02:43:26;6.55;;;3.00;;
44822;SDS011;51097;51.984;5.650;2022-08-02T02:45:53;7.43;;;2.58;;
44822;SDS011;51097;51.984;5.650;2022-08-02T02:48:19;7.88;;;3.08;;
44822;SDS011;51097;51.984;5.650;2022-08-02T02:50:46;6.55;;;3.17;;
44822;SDS011;51097;51.984;5.650;2022-08-02T02:53:12;8.18;;;2.97;;
44822;SDS011;51097;51.984;5.650;2022-08-02T02:55:42;10.25;;;2.65;;
44822;SDS011;51097;51.984;5.650;2022-08-02T02:58:08;6.28;;;3.83;;
44822;SDS011;51097;51.984;5.650;2022-08-02T03:00:34;6.40;;;3.40;;
44822;SDS011;51097;51.984;5.650;2022-08-02T03:03:18;5.45;;;2.88;;
44822;SDS011;51097;51.984;5.650;2022-08-02T03:05:44;6.50;;;2.63;;
44822;SDS011;51097;51.984;5.650;2022-08-02T03:08:10;9.18;;;3.70;;
44822;SDS011;51097;51.984;5.650;2022-08-02T03:10:37;3.50;;;2.63;;
44822;SDS011;51097;51.984;5.650;2022-08-02T03:13:02;6.75;;;3.20;;
44822;SDS011;51097;51.984;5.650;2022-08-02T03:15:28;6.82;;;3.92;;
44822;SDS011;51097;51.984;5.650;2022-08-02T03:17:55;6.32;;;3.78;;
44822;SDS011;51097;51.984;5.650;2022-08-02T03:20:20;9.70;;;3.20;;
44822;SDS011;51097;51.984;5.650;2022-08-02T03:22:49;5.20;;;3.20;;
44822;SDS011;51097;51.984;5.650;2022-08-02T03:25:15;4.80;;;3.83;;
44822;SDS011;51097;51.984;5.650;2022-08-02T03:27:42;9.18;;;3.45;;
44822;SDS011;51097;51.984;5.650;2022-08-02T03:30:08;7.53;;;3.53;;
44822;SDS011;51097;51.984;5.650;2022-08-02T03:32:35;6.88;;;3.28;;
44822;SDS011;51097;51.984;5.650;2022-08-02T03:35:04;6.63;;;3.47;;
44822;SDS011;51097;51.984;5.650;2022-08-02T03:37:31;5.85;;;3.53;;
44822;SDS011;51097;51.984;5.650;2022-08-02T03:39:59;8.45;;;3.85;;
44822;SDS011;51097;51.984;5.650;2022-08-02T03:42:26;8.52;;;3.28;;
44822;SDS011;51097;51.984;5.650;2022-08-02T03:44:52;5.97;;;3.95;;
44822;SDS011;51097;51.984;5.650;2022-08-02T03:47:20;6.40;;;3.90;;
44822;SDS011;51097;51.984;5.650;2022-08-02T03:49:46;8.50;;;3.65;;
44822;SDS011;51097;51.984;5.650;2022-08-02T03:52:12;12.57;;;4.35;;
44822;SDS011;51097;51.984;5.650;2022-08-02T03:54:39;6.10;;;3.58;;
44822;SDS011;51097;51.984;5.650;2022-08-02T03:57:05;7.22;;;4.53;;
44822;SDS011;51097;51.984;5.650;2022-08-02T03:59:40;9.05;;;3.67;;
44822;SDS011;51097;51.984;5.650;2022-08-02T04:02:07;10.50;;;3.75;;
44822;SDS011;51097;51.984;5.650;2022-08-02T04:04:34;5.78;;;3.40;;
44822;SDS011;51097;51.984;5.650;2022-08-02T04:06:59;7.07;;;3.72;;
44822;SDS011;51097;51.984;5.650;2022-08-02T04:09:25;5.18;;;2.80;;
44822;SDS011;51097;51.984;5.650;2022-08-02T04:11:50;8.65;;;3.05;;
44822;SDS011;51097;51.984;5.650;2022-08-02T04:14:16;6.78;;;4.18;;
44822;SDS011;51097;51.984;5.650;2022-08-02T04:16:43;6.60;;;3.05;;
44822;SDS011;51097;51.984;5.650;2022-08-02T04:19:16;6.75;;;2.75;;
44822;SDS011;51097;51.984;5.650;2022-08-02T04:21:49;9.05;;;3.08;;
44822;SDS011;51097;51.984;5.650;2022-08-02T04:24:17;6.43;;;3.65;;
44822;SDS011;51097;51.984;5.650;2022-08-02T04:26:47;13.25;;;3.20;;
44822;SDS011;51097;51.984;5.650;2022-08-02T04:29:13;9.88;;;4.18;;
44822;SDS011;51097;51.984;5.650;2022-08-02T04:31:40;6.32;;;3.30;;
44822;SDS011;51097;51.984;5.650;2022-08-02T04:34:07;9.10;;;3.85;;
44822;SDS011;51097;51.984;5.650;2022-08-02T04:36:32;7.22;;;2.80;;
44822;SDS011;51097;51.984;5.650;2022-08-02T04:38:59;5.10;;;2.65;;
44822;SDS011;51097;51.984;5.650;2022-08-02T04:41:37;9.25;;;2.95;;
44822;SDS011;51097;51.984;5.650;2022-08-02T04:44:07;5.75;;;2.80;;
44822;SDS011;51097;51.984;5.650;2022-08-02T04:46:33;5.90;;;3.10;;
44822;SDS011;51097;51.984;5.650;2022-08-02T04:49:00;3.65;;;2.28;;
44822;SDS011;51097;51.984;5.650;2022-08-02T04:51:26;7.07;;;3.35;;
44822;SDS011;51097;51.984;5.650;2022-08-02T04:53:51;6.15;;;3.08;;
44822;SDS011;51097;51.984;5.650;2022-08-02T04:56:17;4.78;;;2.80;;
44822;SDS011;51097;51.984;5.650;2022-08-02T04:58:42;5.65;;;2.70;;
44822;SDS011;51097;51.984;5.650;2022-08-02T05:01:08;7.05;;;2.72;;
44822;SDS011;51097;51.984;5.650;2022-08-02T05:03:33;5.63;;;3.22;;
44822;SDS011;51097;51.984;5.650;2022-08-02T05:05:59;5.68;;;2.83;;
44822;SDS011;51097;51.984;5.650;2022-08-02T05:08:24;5.30;;;3.08;;
44822;SDS011;51097;51.984;5.650;2022-08-02T05:10:51;5.40;;;2.65;;
44822;SDS011;51097;51.984;5.650;2022-08-02T05:13:16;8.95;;;3.80;;
44822;SDS011;51097;51.984;5.650;2022-08-02T05:15:42;6.32;;;3.75;;
44822;SDS011;51097;51.984;5.650;2022-08-02T05:18:07;10.32;;;3.50;;
44822;SDS011;51097;51.984;5.650;2022-08-02T05:20:33;7.22;;;2.95;;
44822;SDS011;51097;51.984;5.650;2022-08-02T05:22:59;3.90;;;3.20;;
44822;SDS011;51097;51.984;5.650;2022-08-02T05:25:24;7.75;;;4.05;;
44822;SDS011;51097;51.984;5.650;2022-08-02T05:27:50;7.55;;;3.30;;
44822;SDS011;51097;51.984;5.650;2022-08-02T05:30:15;5.70;;;2.95;;
44822;SDS011;51097;51.984;5.650;2022-08-02T05:32:42;6.85;;;3.67;;
44822;SDS011;51097;51.984;5.650;2022-08-02T05:35:08;8.23;;;2.95;;
44822;SDS011;51097;51.984;5.650;2022-08-02T05:37:34;8.98;;;3.80;;
44822;SDS011;51097;51.984;5.650;2022-08-02T05:39:59;6.45;;;3.95;;
44822;SDS011;51097;51.984;5.650;2022-08-02T05:42:25;6.57;;;3.58;;
44822;SDS011;51097;51.984;5.650;2022-08-02T05:44:50;7.60;;;4.13;;
44822;SDS011;51097;51.984;5.650;2022-08-02T05:47:16;10.15;;;4.45;;
44822;SDS011;51097;51.984;5.650;2022-08-02T05:49:42;8.52;;;4.10;;
44822;SDS011;51097;51.984;5.650;2022-08-02T05:52:14;7.32;;;4.28;;
44822;SDS011;51097;51.984;5.650;2022-08-02T05:54:48;6.65;;;4.47;;
44822;SDS011;51097;51.984;5.650;2022-08-02T05:57:57;11.55;;;4.78;;
44822;SDS011;51097;51.984;5.650;2022-08-02T06:00:41;7.13;;;4.65;;
44822;SDS011;51097;51.984;5.650;2022-08-02T06:06:03;11.85;;;4.43;;
44822;SDS011;51097;51.984;5.650;2022-08-02T06:08:38;9.20;;;5.20;;
44822;SDS011;51097;51.984;5.650;2022-08-02T06:11:04;7.53;;;5.22;;
44822;SDS011;51097;51.984;5.650;2022-08-02T06:13:30;9.45;;;4.78;;
44822;SDS011;51097;51.984;5.650;2022-08-02T06:15:56;10.05;;;5.15;;
44822;SDS011;51097;51.984;5.650;2022-08-02T06:18:25;11.48;;;5.07;;
44822;SDS011;51097;51.984;5.650;2022-08-02T06:20:52;7.20;;;4.93;;
44822;SDS011;51097;51.984;5.650;2022-08-02T06:23:24;11.77;;;5.43;;
44822;SDS011;51097;51.984;5.650;2022-08-02T06:25:51;10.23;;;6.10;;
44822;SDS011;51097;51.984;5.650;2022-08-02T06:28:17;10.30;;;5.07;;
44822;SDS011;51097;51.984;5.650;2022-08-02T06:30:43;10.57;;;5.53;;
44822;SDS011;51097;51.984;5.650;2022-08-02T06:33:09;12.13;;;5.25;;
44822;SDS011;51097;51.984;5.650;2022-08-02T06:38:05;11.63;;;5.97;;
44822;SDS011;51097;51.984;5.650;2022-08-02T06:40:43;7.80;;;5.38;;
44822;SDS011;51097;51.984;5.650;2022-08-02T06:45:42;8.52;;;5.22;;
44822;SDS011;51097;51.984;5.650;2022-08-02T06:48:09;11.50;;;6.40;;
44822;SDS011;51097;51.984;5.650;2022-08-02T06:50:35;10.60;;;5.95;;
44822;SDS011;51097;51.984;5.650;2022-08-02T06:53:03;10.48;;;6.35;;
44822;SDS011;51097;51.984;5.650;2022-08-02T06:55:30;12.77;;;6.15;;
44822;SDS011;51097;51.984;5.650;2022-08-02T06:57:56;12.85;;;7.00;;
44822;SDS011;51097;51.984;5.650;2022-08-02T07:00:22;9.95;;;6.65;;
44822;SDS011;51097;51.984;5.650;2022-08-02T07:02:48;10.40;;;6.60;;
44822;SDS011;51097;51.984;5.650;2022-08-02T07:05:14;9.73;;;7.00;;
44822;SDS011;51097;51.984;5.650;2022-08-02T07:07:40;12.77;;;7.05;;
44822;SDS011;51097;51.984;5.650;2022-08-02T07:10:06;11.07;;;8.55;;
44822;SDS011;51097;51.984;5.650;2022-08-02T07:12:32;13.48;;;6.97;;
44822;SDS011;51097;51.984;5.650;2022-08-02T07:14:59;13.07;;;8.05;;
44822;SDS011;51097;51.984;5.650;2022-08-02T07:17:26;9.68;;;8.57;;
44822;SDS011;51097;51.984;5.650;2022-08-02T07:19:53;14.93;;;10.13;;
44822;SDS011;51097;51.984;5.650;2022-08-02T07:22:18;13.05;;;9.40;;
44822;SDS011;51097;51.984;5.650;2022-08-02T07:24:47;9.57;;;8.60;;
44822;SDS011;51097;51.984;5.650;2022-08-02T07:27:12;11.15;;;9.40;;
44822;SDS011;51097;51.984;5.650;2022-08-02T07:29:38;15.45;;;11.50;;
44822;SDS011;51097;51.984;5.650;2022-08-02T07:32:05;15.20;;;10.18;;
44822;SDS011;51097;51.984;5.650;2022-08-02T07:34:30;14.35;;;10.48;;
44822;SDS011;51097;51.984;5.650;2022-08-02T07:36:56;15.23;;;11.65;;
44822;SDS011;51097;51.984;5.650;2022-08-02T07:39:22;14.93;;;11.00;;
44822;SDS011;51097;51.984;5.650;2022-08-02T07:41:47;15.20;;;11.32;;
44822;SDS011;51097;51.984;5.650;2022-08-02T07:44:16;14.18;;;12.30;;
44822;SDS011;51097;51.984;5.650;2022-08-02T07:46:42;11.65;;;10.35;;
44822;SDS011;51097;51.984;5.650;2022-08-02T07:49:08;14.32;;;10.95;;
44822;SDS011;51097;51.984;5.650;2022-08-02T07:51:34;12.40;;;10.88;;
44822;SDS011;51097;51.984;5.650;2022-08-02T07:54:00;13.85;;;12.10;;
44822;SDS011;51097;51.984;5.650;2022-08-02T07:56:26;15.77;;;11.52;;
44822;SDS011;51097;51.984;5.650;2022-08-02T07:58:52;14.77;;;11.32;;
44822;SDS011;51097;51.984;5.650;2022-08-02T08:01:18;12.48;;;11.18;;
44822;SDS011;51097;51.984;5.650;2022-08-02T08:03:44;12.55;;;11.15;;
44822;SDS011;51097;51.984;5.650;2022-08-02T08:06:09;13.68;;;11.75;;
44822;SDS011;51097;51.984;5.650;2022-08-02T08:08:35;14.27;;;11.40;;
44822;SDS011;51097;51.984;5.650;2022-08-02T08:11:01;15.98;;;12.10;;
44822;SDS011;51097;51.984;5.650;2022-08-02T08:13:26;16.50;;;11.25;;
44822;SDS011;51097;51.984;5.650;2022-08-02T08:15:52;12.45;;;10.73;;
44822;SDS011;51097;51.984;5.650;2022-08-02T08:18:18;20.20;;;14.18;;
44822;SDS011;51097;51.984;5.650;2022-08-02T08:20:44;13.43;;;12.00;;
44822;SDS011;51097;51.984;5.650;2022-08-02T08:23:09;12.95;;;11.48;;
44822;SDS011;51097;51.984;5.650;2022-08-02T08:25:35;14.65;;;12.20;;
44822;SDS011;51097;51.984;5.650;2022-08-02T08:28:00;13.77;;;12.18;;
44822;SDS011;51097;51.984;5.650;2022-08-02T08:30:26;16.80;;;12.15;;
44822;SDS011;51097;51.984;5.650;2022-08-02T08:32:52;13.63;;;12.18;;
44822;SDS011;51097;51.984;5.650;2022-08-02T08:35:17;12.82;;;11.55;;
44822;SDS011;51097;51.984;5.650;2022-08-02T08:37:43;15.00;;;10.68;;
44822;SDS011;51097;51.984;5.650;2022-08-02T08:40:10;12.75;;;11.27;;
44822;SDS011;51097;51.984;5.650;2022-08-02T08:42:37;12.23;;;10.88;;
44822;SDS011;51097;51.984;5.650;2022-08-02T08:45:03;13.73;;;11.25;;
44822;SDS011;51097;51.984;5.650;2022-08-02T08:52:40;15.30;;;13.00;;
44822;SDS011;51097;51.984;5.650;2022-08-02T08:55:10;13.73;;;12.05;;
44822;SDS011;51097;51.984;5.650;2022-08-02T08:57:39;13.65;;;12.05;;
44822;SDS011;51097;51.984;5.650;2022-08-02T09:00:06;13.50;;;10.38;;
44822;SDS011;51097;51.984;5.650;2022-08-02T09:02:33;13.23;;;10.15;;
44822;SDS011;51097;51.984;5.650;2022-08-02T09:05:00;16.02;;;9.07;;
44822;SDS011;51097;51.984;5.650;2022-08-02T09:07:26;9.73;;;8.15;;
44822;SDS011;51097;51.984;5.650;2022-08-02T09:09:52;8.63;;;7.60;;
44822;SDS011;51097;51.984;5.650;2022-08-02T09:12:18;10.50;;;7.18;;
44822;SDS011;51097;51.984;5.650;2022-08-02T09:14:47;12.25;;;7.43;;
44822;SDS011;51097;51.984;5.650;2022-08-02T09:17:12;8.73;;;6.50;;
44822;SDS011;51097;51.984;5.650;2022-08-02T09:19:38;7.25;;;6.35;;
44822;SDS011;51097;51.984;5.650;2022-08-02T09:22:08;8.45;;;5.70;;
44822;SDS011;51097;51.984;5.650;2022-08-02T09:24:48;7.32;;;6.07;;
44822;SDS011;51097;51.984;5.650;2022-08-02T09:27:16;10.25;;;5.97;;
44822;SDS011;51097;51.984;5.650;2022-08-02T09:29:47;7.38;;;5.50;;
44822;SDS011;51097;51.984;5.650;2022-08-02T09:32:14;8.25;;;5.93;;
44822;SDS011;51097;51.984;5.650;2022-08-02T09:34:43;6.88;;;5.88;;
44822;SDS011;51097;51.984;5.650;2022-08-02T09:37:20;6.78;;;6.07;;
44822;SDS011;51097;51.984;5.650;2022-08-02T09:39:47;6.82;;;5.68;;
44822;SDS011;51097;51.984;5.650;2022-08-02T09:42:12;7.20;;;6.03;;
44822;SDS011;51097;51.984;5.650;2022-08-02T09:44:39;7.03;;;5.55;;
44822;SDS011;51097;51.984;5.650;2022-08-02T09:47:12;7.00;;;4.85;;
44822;SDS011;51097;51.984;5.650;2022-08-02T09:49:44;6.93;;;5.25;;
44822;SDS011;51097;51.984;5.650;2022-08-02T09:52:11;8.30;;;5.50;;
44822;SDS011;51097;51.984;5.650;2022-08-02T09:54:36;9.50;;;5.85;;
44822;SDS011;51097;51.984;5.650;2022-08-02T09:57:03;7.90;;;5.70;;
44822;SDS011;51097;51.984;5.650;2022-08-02T09:59:29;7.35;;;5.57;;
44822;SDS011;51097;51.984;5.650;2022-08-02T10:01:55;5.85;;;4.22;;
44822;SDS011;51097;51.984;5.650;2022-08-02T10:04:23;5.82;;;5.22;;
44822;SDS011;51097;51.984;5.650;2022-08-02T10:06:51;6.00;;;4.88;;
44822;SDS011;51097;51.984;5.650;2022-08-02T10:09:18;7.45;;;4.30;;
44822;SDS011;51097;51.984;5.650;2022-08-02T10:11:45;5.82;;;4.35;;
44822;SDS011;51097;51.984;5.650;2022-08-02T10:14:11;6.28;;;3.78;;
44822;SDS011;51097;51.984;5.650;2022-08-02T10:16:38;6.05;;;3.92;;
44822;SDS011;51097;51.984;5.650;2022-08-02T10:19:05;5.75;;;3.40;;
44822;SDS011;51097;51.984;5.650;2022-08-02T10:24:17;5.13;;;3.75;;
44822;SDS011;51097;51.984;5.650;2022-08-02T10:26:46;6.22;;;3.88;;
44822;SDS011;51097;51.984;5.650;2022-08-02T10:29:17;4.38;;;3.95;;
44822;SDS011;51097;51.984;5.650;2022-08-02T10:34:19;4.05;;;3.63;;
44822;SDS011;51097;51.984;5.650;2022-08-02T10:36:48;5.15;;;4.30;;
44822;SDS011;51097;51.984;5.650;2022-08-02T10:39:14;5.15;;;3.45;;
44822;SDS011;51097;51.984;5.650;2022-08-02T10:41:41;6.45;;;3.80;;
44822;SDS011;51097;51.984;5.650;2022-08-02T10:44:07;6.40;;;3.95;;
44822;SDS011;51097;51.984;5.650;2022-08-02T10:46:33;3.58;;;3.28;;
44822;SDS011;51097;51.984;5.650;2022-08-02T10:54:46;4.57;;;3.70;;
44822;SDS011;51097;51.984;5.650;2022-08-02T10:57:16;3.95;;;3.33;;
44822;SDS011;51097;51.984;5.650;2022-08-02T10:59:43;4.85;;;3.83;;
44822;SDS011;51097;51.984;5.650;2022-08-02T11:02:09;6.47;;;4.90;;
44822;SDS011;51097;51.984;5.650;2022-08-02T11:07:09;4.22;;;3.83;;
44822;SDS011;51097;51.984;5.650;2022-08-02T11:09:38;4.32;;;3.92;;
44822;SDS011;51097;51.984;5.650;2022-08-02T11:12:05;4.57;;;2.88;;
44822;SDS011;51097;51.984;5.650;2022-08-02T11:14:33;2.25;;;1.98;;
44822;SDS011;51097;51.984;5.650;2022-08-02T11:17:04;2.33;;;1.85;;
44822;SDS011;51097;51.984;5.650;2022-08-02T11:19:32;3.42;;;2.10;;
44822;SDS011;51097;51.984;5.650;2022-08-02T11:24:32;3.17;;;2.20;;
44822;SDS011;51097;51.984;5.650;2022-08-02T11:26:59;2.40;;;2.20;;
44822;SDS011;51097;51.984;5.650;2022-08-02T11:31:58;4.03;;;2.17;;
44822;SDS011;51097;51.984;5.650;2022-08-02T11:34:24;2.75;;;2.47;;
44822;SDS011;51097;51.984;5.650;2022-08-02T11:36:50;2.75;;;2.15;;
44822;SDS011;51097;51.984;5.650;2022-08-02T11:39:17;5.63;;;2.22;;
44822;SDS011;51097;51.984;5.650;2022-08-02T11:41:48;2.33;;;2.13;;
44822;SDS011;51097;51.984;5.650;2022-08-02T11:44:22;2.33;;;2.10;;
44822;SDS011;51097;51.984;5.650;2022-08-02T11:49:21;3.65;;;2.15;;
44822;SDS011;51097;51.984;5.650;2022-08-02T11:52:06;4.43;;;2.13;;
44822;SDS011;51097;51.984;5.650;2022-08-02T11:54:35;2.67;;;1.90;;
44822;SDS011;51097;51.984;5.650;2022-08-02T11:59:40;1.90;;;1.70;;
44822;SDS011;51097;51.984;5.650;2022-08-02T12:02:07;1.65;;;1.55;;
44822;SDS011;51097;51.984;5.650;2022-08-02T12:04:33;4.22;;;2.30;;
44822;SDS011;51097;51.984;5.650;2022-08-02T12:07:00;2.22;;;1.70;;
44822;SDS011;51097;51.984;5.650;2022-08-02T12:09:27;2.10;;;1.90;;
44822;SDS011;51097;51.984;5.650;2022-08-02T12:11:54;2.15;;;1.60;;
44822;SDS011;51097;51.984;5.650;2022-08-02T12:14:21;1.92;;;1.33;;
44822;SDS011;51097;51.984;5.650;2022-08-02T12:16:47;3.38;;;1.67;;
44822;SDS011;51097;51.984;5.650;2022-08-02T12:19:52;1.40;;;1.30;;
44822;SDS011;51097;51.984;5.650;2022-08-02T12:22:21;3.25;;;1.52;;
44822;SDS011;51097;51.984;5.650;2022-08-02T12:24:52;5.25;;;1.80;;
44822;SDS011;51097;51.984;5.650;2022-08-02T12:27:30;2.45;;;1.60;;
44822;SDS011;51097;51.984;5.650;2022-08-02T12:30:03;2.10;;;1.58;;
44822;SDS011;51097;51.984;5.650;2022-08-02T12:32:29;2.78;;;1.50;;
44822;SDS011;51097;51.984;5.650;2022-08-02T12:35:06;4.13;;;1.40;;
44822;SDS011;51097;51.984;5.650;2022-08-02T12:37:40;1.80;;;1.25;;
44822;SDS011;51097;51.984;5.650;2022-08-02T12:40:16;2.72;;;1.50;;
44822;SDS011;51097;51.984;5.650;2022-08-02T12:42:55;2.03;;;1.40;;
44822;SDS011;51097;51.984;5.650;2022-08-02T12:45:32;5.57;;;1.90;;
44822;SDS011;51097;51.984;5.650;2022-08-02T12:48:11;3.38;;;1.58;;
44822;SDS011;51097;51.984;5.650;2022-08-02T12:50:37;3.55;;;1.88;;
44822;SDS011;51097;51.984;5.650;2022-08-02T12:53:10;3.45;;;1.75;;
44822;SDS011;51097;51.984;5.650;2022-08-02T12:58:12;1.90;;;1.70;;
44822;SDS011;51097;51.984;5.650;2022-08-02T13:00:38;1.67;;;1.40;;
44822;SDS011;51097;51.984;5.650;2022-08-02T13:03:05;2.80;;;1.50;;
44822;SDS011;51097;51.984;5.650;2022-08-02T13:05:33;3.63;;;1.35;;
44822;SDS011;51097;51.984;5.650;2022-08-02T13:08:00;2.15;;;1.20;;
44822;SDS011;51097;51.984;5.650;2022-08-02T13:10:27;2.10;;;1.30;;
44822;SDS011;51097;51.984;5.650;2022-08-02T13:12:52;2.08;;;1.40;;
44822;SDS011;51097;51.984;5.650;2022-08-02T13:15:19;2.45;;;1.27;;
44822;SDS011;51097;51.984;5.650;2022-08-02T13:17:45;3.20;;;1.25;;
44822;SDS011;51097;51.984;5.650;2022-08-02T13:20:11;3.08;;;1.25;;
44822;SDS011;51097;51.984;5.650;2022-08-02T13:22:38;4.10;;;1.55;;
44822;SDS011;51097;51.984;5.650;2022-08-02T13:25:05;3.28;;;1.35;;
44822;SDS011;51097;51.984;5.650;2022-08-02T13:27:30;1.75;;;1.45;;
44822;SDS011;51097;51.984;5.650;2022-08-02T13:29:56;1.73;;;1.45;;
44822;SDS011;51097;51.984;5.650;2022-08-02T13:32:22;4.65;;;1.50;;
44822;SDS011;51097;51.984;5.650;2022-08-02T13:34:49;1.63;;;1.50;;
44822;SDS011;51097;51.984;5.650;2022-08-02T13:37:15;3.22;;;1.45;;
44822;SDS011;51097;51.984;5.650;2022-08-02T13:39:41;2.65;;;1.80;;
44822;SDS011;51097;51.984;5.650;2022-08-02T13:42:06;3.72;;;1.60;;
44822;SDS011;51097;51.984;5.650;2022-08-02T13:44:32;3.10;;;1.40;;
44822;SDS011;51097;51.984;5.650;2022-08-02T13:46:59;2.95;;;2.13;;
44822;SDS011;51097;51.984;5.650;2022-08-02T13:49:25;2.90;;;1.42;;
44822;SDS011;51097;51.984;5.650;2022-08-02T13:51:51;7.35;;;1.67;;
44822;SDS011;51097;51.984;5.650;2022-08-02T13:54:17;4.43;;;1.50;;
44822;SDS011;51097;51.984;5.650;2022-08-02T13:56:42;3.00;;;1.63;;
44822;SDS011;51097;51.984;5.650;2022-08-02T13:59:08;4.93;;;1.90;;
44822;SDS011;51097;51.984;5.650;2022-08-02T14:01:34;4.15;;;1.63;;
44822;SDS011;51097;51.984;5.650;2022-08-02T14:04:00;6.25;;;1.30;;
44822;SDS011;51097;51.984;5.650;2022-08-02T14:06:25;2.88;;;1.35;;
44822;SDS011;51097;51.984;5.650;2022-08-02T14:08:51;4.72;;;1.15;;
44822;SDS011;51097;51.984;5.650;2022-08-02T14:11:17;4.18;;;1.27;;
44822;SDS011;51097;51.984;5.650;2022-08-02T14:13:42;4.30;;;1.40;;
44822;SDS011;51097;51.984;5.650;2022-08-02T14:16:08;1.88;;;1.40;;
44822;SDS011;51097;51.984;5.650;2022-08-02T14:18:34;4.25;;;1.73;;
44822;SDS011;51097;51.984;5.650;2022-08-02T14:20:59;1.90;;;1.33;;
44822;SDS011;51097;51.984;5.650;2022-08-02T14:23:25;2.30;;;1.38;;
44822;SDS011;51097;51.984;5.650;2022-08-02T14:25:51;5.07;;;1.40;;
44822;SDS011;51097;51.984;5.650;2022-08-02T14:28:16;2.95;;;1.40;;
44822;SDS011;51097;51.984;5.650;2022-08-02T14:30:42;5.90;;;1.52;;
44822;SDS011;51097;51.984;5.650;2022-08-02T14:33:08;4.32;;;1.20;;
44822;SDS011;51097;51.984;5.650;2022-08-02T14:35:33;3.40;;;1.27;;
44822;SDS011;51097;51.984;5.650;2022-08-02T14:37:59;3.55;;;1.20;;
44822;SDS011;51097;51.984;5.650;2022-08-02T14:40:25;1.70;;;1.05;;
44822;SDS011;51097;51.984;5.650;2022-08-02T14:42:51;3.15;;;0.98;;
44822;SDS011;51097;51.984;5.650;2022-08-02T14:45:17;2.78;;;1.30;;
44822;SDS011;51097;51.984;5.650;2022-08-02T14:47:45;5.30;;;1.30;;
44822;SDS011;51097;51.984;5.650;2022-08-02T14:50:14;4.73;;;1.27;;
44822;SDS011;51097;51.984;5.650;2022-08-02T14:52:42;5.63;;;1.55;;
44822;SDS011;51097;51.984;5.650;2022-08-02T14:55:11;2.67;;;1.40;;
44822;SDS011;51097;51.984;5.650;2022-08-02T14:57:37;3.28;;;1.10;;
44822;SDS011;51097;51.984;5.650;2022-08-02T15:00:03;4.78;;;1.67;;
44822;SDS011;51097;51.984;5.650;2022-08-02T15:02:30;3.72;;;1.70;;
44822;SDS011;51097;51.984;5.650;2022-08-02T15:04:55;4.10;;;1.63;;
44822;SDS011;51097;51.984;5.650;2022-08-02T15:07:21;3.83;;;1.42;;
44822;SDS011;51097;51.984;5.650;2022-08-02T15:09:46;4.10;;;2.17;;
44822;SDS011;51097;51.984;5.650;2022-08-02T15:12:12;8.18;;;2.33;;
44822;SDS011;51097;51.984;5.650;2022-08-02T15:14:38;5.63;;;1.55;;
44822;SDS011;51097;51.984;5.650;2022-08-02T15:17:04;3.30;;;1.58;;
44822;SDS011;51097;51.984;5.650;2022-08-02T15:19:31;3.22;;;1.40;;
44822;SDS011;51097;51.984;5.650;2022-08-02T15:21:57;3.53;;;2.03;;
44822;SDS011;51097;51.984;5.650;2022-08-02T15:24:22;4.78;;;1.60;;
44822;SDS011;51097;51.984;5.650;2022-08-02T15:26:48;2.45;;;1.50;;
44822;SDS011;51097;51.984;5.650;2022-08-02T15:29:15;3.10;;;1.60;;
44822;SDS011;51097;51.984;5.650;2022-08-02T15:31:41;3.85;;;1.60;;
44822;SDS011;51097;51.984;5.650;2022-08-02T15:34:07;4.95;;;1.50;;
44822;SDS011;51097;51.984;5.650;2022-08-02T15:36:32;5.38;;;1.63;;
44822;SDS011;51097;51.984;5.650;2022-08-02T15:38:58;3.25;;;1.77;;